sensor_id;sensor_type;location;lat;lon;timestamp;P1;durP1;ratioP1;P2;durP2;ratioP2
63801;SDS011;49949;43.060;25.624;2022-10-31T00:00:24;14.02;;;6.75;;
63801;SDS011;49949;43.060;25.624;2022-10-31T00:02:49;17.90;;;7.10;;
63801;SDS011;49949;43.060;25.624;2022-10-31T00:05:15;17.83;;;6.72;;
63801;SDS011;49949;43.060;25.624;2022-10-31T00:07:41;16.98;;;7.30;;
63801;SDS011;49949;43.060;25.624;2022-10-31T00:10:06;20.17;;;8.60;;
63801;SDS011;49949;43.060;25.624;2022-10-31T00:12:33;21.95;;;7.80;;
63801;SDS011;49949;43.060;25.624;2022-10-31T00:14:58;17.33;;;7.15;;
63801;SDS011;49949;43.060;25.624;2022-10-31T00:17:24;13.43;;;7.07;;
63801;SDS011;49949;43.060;25.624;2022-10-31T00:19:50;15.23;;;6.43;;
63801;SDS011;49949;43.060;25.624;2022-10-31T00:22:15;17.13;;;6.90;;
63801;SDS011;49949;43.060;25.624;2022-10-31T00:24:41;12.35;;;5.97;;
63801;SDS011;49949;43.060;25.624;2022-10-31T00:27:07;20.20;;;6.95;;
63801;SDS011;49949;43.060;25.624;2022-10-31T00:29:32;17.85;;;6.47;;
63801;SDS011;49949;43.060;25.624;2022-10-31T00:31:58;21.73;;;7.45;;
63801;SDS011;49949;43.060;25.624;2022-10-31T00:34:24;18.20;;;6.10;;
63801;SDS011;49949;43.060;25.624;2022-10-31T00:36:49;15.25;;;6.15;;
63801;SDS011;49949;43.060;25.624;2022-10-31T00:39:15;20.00;;;5.90;;
63801;SDS011;49949;43.060;25.624;2022-10-31T00:41:41;14.93;;;6.93;;
63801;SDS011;49949;43.060;25.624;2022-10-31T00:44:06;15.35;;;6.90;;
63801;SDS011;49949;43.060;25.624;2022-10-31T00:46:32;18.40;;;6.57;;
63801;SDS011;49949;43.060;25.624;2022-10-31T00:48:58;16.05;;;6.70;;
63801;SDS011;49949;43.060;25.624;2022-10-31T00:51:24;12.15;;;6.50;;
63801;SDS011;49949;43.060;25.624;2022-10-31T00:53:49;18.65;;;6.40;;
63801;SDS011;49949;43.060;25.624;2022-10-31T00:56:15;15.95;;;6.95;;
63801;SDS011;49949;43.060;25.624;2022-10-31T00:58:41;11.85;;;6.05;;
63801;SDS011;49949;43.060;25.624;2022-10-31T01:01:06;11.88;;;6.13;;
63801;SDS011;49949;43.060;25.624;2022-10-31T01:03:32;14.73;;;6.32;;
63801;SDS011;49949;43.060;25.624;2022-10-31T01:06:06;16.05;;;6.82;;
63801;SDS011;49949;43.060;25.624;2022-10-31T01:08:34;16.35;;;7.50;;
63801;SDS011;49949;43.060;25.624;2022-10-31T01:11:02;14.48;;;7.78;;
63801;SDS011;49949;43.060;25.624;2022-10-31T01:13:31;13.85;;;6.63;;
63801;SDS011;49949;43.060;25.624;2022-10-31T01:15:57;16.73;;;6.25;;
63801;SDS011;49949;43.060;25.624;2022-10-31T01:18:25;14.10;;;5.78;;
63801;SDS011;49949;43.060;25.624;2022-10-31T01:20:57;12.20;;;6.25;;
63801;SDS011;49949;43.060;25.624;2022-10-31T01:23:25;12.18;;;6.28;;
63801;SDS011;49949;43.060;25.624;2022-10-31T01:25:58;13.60;;;5.78;;
63801;SDS011;49949;43.060;25.624;2022-10-31T01:28:33;15.25;;;6.00;;
63801;SDS011;49949;43.060;25.624;2022-10-31T01:31:04;18.77;;;5.85;;
63801;SDS011;49949;43.060;25.624;2022-10-31T01:33:31;12.43;;;5.68;;
63801;SDS011;49949;43.060;25.624;2022-10-31T01:35:57;12.27;;;6.45;;
63801;SDS011;49949;43.060;25.624;2022-10-31T01:38:23;15.88;;;6.70;;
63801;SDS011;49949;43.060;25.624;2022-10-31T01:40:49;11.68;;;5.80;;
63801;SDS011;49949;43.060;25.624;2022-10-31T01:43:15;15.43;;;5.85;;
63801;SDS011;49949;43.060;25.624;2022-10-31T01:45:50;13.43;;;6.60;;
63801;SDS011;49949;43.060;25.624;2022-10-31T01:48:19;15.88;;;6.47;;
63801;SDS011;49949;43.060;25.624;2022-10-31T01:50:49;13.68;;;6.38;;
63801;SDS011;49949;43.060;25.624;2022-10-31T01:53:18;10.50;;;5.53;;
63801;SDS011;49949;43.060;25.624;2022-10-31T01:55:45;13.20;;;5.38;;
63801;SDS011;49949;43.060;25.624;2022-10-31T01:58:13;8.35;;;5.10;;
63801;SDS011;49949;43.060;25.624;2022-10-31T02:00:44;9.07;;;5.05;;
63801;SDS011;49949;43.060;25.624;2022-10-31T02:03:14;11.70;;;5.50;;
63801;SDS011;49949;43.060;25.624;2022-10-31T02:05:41;14.02;;;5.03;;
63801;SDS011;49949;43.060;25.624;2022-10-31T02:08:16;11.38;;;5.18;;
63801;SDS011;49949;43.060;25.624;2022-10-31T02:10:53;10.80;;;4.82;;
63801;SDS011;49949;43.060;25.624;2022-10-31T02:13:20;9.82;;;4.88;;
63801;SDS011;49949;43.060;25.624;2022-10-31T02:15:49;16.77;;;4.72;;
63801;SDS011;49949;43.060;25.624;2022-10-31T02:18:17;14.52;;;4.82;;
63801;SDS011;49949;43.060;25.624;2022-10-31T02:21:19;9.68;;;4.88;;
63801;SDS011;49949;43.060;25.624;2022-10-31T02:35:00;9.40;;;5.50;;
63801;SDS011;49949;43.060;25.624;2022-10-31T02:37:50;13.95;;;5.47;;
63801;SDS011;49949;43.060;25.624;2022-10-31T02:40:26;13.23;;;4.63;;
63801;SDS011;49949;43.060;25.624;2022-10-31T02:43:02;9.52;;;4.60;;
63801;SDS011;49949;43.060;25.624;2022-10-31T02:45:31;8.38;;;4.90;;
63801;SDS011;49949;43.060;25.624;2022-10-31T02:48:09;9.80;;;4.35;;
63801;SDS011;49949;43.060;25.624;2022-10-31T02:50:41;9.18;;;4.75;;
63801;SDS011;49949;43.060;25.624;2022-10-31T02:53:10;9.85;;;4.90;;
63801;SDS011;49949;43.060;25.624;2022-10-31T02:55:42;8.75;;;4.50;;
63801;SDS011;49949;43.060;25.624;2022-10-31T02:58:13;11.35;;;4.55;;
63801;SDS011;49949;43.060;25.624;2022-10-31T03:00:49;10.57;;;4.60;;
63801;SDS011;49949;43.060;25.624;2022-10-31T03:03:36;13.15;;;5.50;;
63801;SDS011;49949;43.060;25.624;2022-10-31T03:08:49;9.40;;;4.80;;
63801;SDS011;49949;43.060;25.624;2022-10-31T03:11:22;11.57;;;4.88;;
63801;SDS011;49949;43.060;25.624;2022-10-31T03:14:17;16.73;;;7.07;;
63801;SDS011;49949;43.060;25.624;2022-10-31T03:16:53;9.90;;;4.50;;
63801;SDS011;49949;43.060;25.624;2022-10-31T03:19:26;11.10;;;4.30;;
63801;SDS011;49949;43.060;25.624;2022-10-31T03:22:17;12.50;;;4.70;;
63801;SDS011;49949;43.060;25.624;2022-10-31T03:24:47;10.18;;;4.85;;
63801;SDS011;49949;43.060;25.624;2022-10-31T03:27:18;13.32;;;6.18;;
63801;SDS011;49949;43.060;25.624;2022-10-31T03:29:49;10.68;;;5.50;;
63801;SDS011;49949;43.060;25.624;2022-10-31T03:32:18;13.77;;;6.93;;
63801;SDS011;49949;43.060;25.624;2022-10-31T03:34:59;17.03;;;6.47;;
63801;SDS011;49949;43.060;25.624;2022-10-31T03:37:27;10.07;;;4.72;;
63801;SDS011;49949;43.060;25.624;2022-10-31T03:39:55;16.55;;;4.70;;
63801;SDS011;49949;43.060;25.624;2022-10-31T03:42:28;12.63;;;5.40;;
63801;SDS011;49949;43.060;25.624;2022-10-31T03:44:57;12.90;;;5.65;;
63801;SDS011;49949;43.060;25.624;2022-10-31T03:47:30;8.70;;;4.72;;
63801;SDS011;49949;43.060;25.624;2022-10-31T03:49:56;11.80;;;4.50;;
63801;SDS011;49949;43.060;25.624;2022-10-31T03:55:16;13.68;;;5.15;;
63801;SDS011;49949;43.060;25.624;2022-10-31T04:00:22;12.00;;;4.70;;
63801;SDS011;49949;43.060;25.624;2022-10-31T04:05:40;7.75;;;4.18;;
63801;SDS011;49949;43.060;25.624;2022-10-31T04:08:09;12.10;;;4.78;;
63801;SDS011;49949;43.060;25.624;2022-10-31T04:10:37;12.95;;;4.72;;
63801;SDS011;49949;43.060;25.624;2022-10-31T04:13:06;15.85;;;7.53;;
63801;SDS011;49949;43.060;25.624;2022-10-31T04:15:35;26.27;;;9.02;;
63801;SDS011;49949;43.060;25.624;2022-10-31T04:18:03;24.33;;;9.07;;
63801;SDS011;49949;43.060;25.624;2022-10-31T04:20:33;14.35;;;6.13;;
63801;SDS011;49949;43.060;25.624;2022-10-31T04:23:04;11.80;;;5.57;;
63801;SDS011;49949;43.060;25.624;2022-10-31T04:25:33;8.27;;;4.72;;
63801;SDS011;49949;43.060;25.624;2022-10-31T04:27:58;13.18;;;5.18;;
63801;SDS011;49949;43.060;25.624;2022-10-31T04:30:24;16.90;;;6.15;;
63801;SDS011;49949;43.060;25.624;2022-10-31T04:32:50;9.85;;;4.63;;
63801;SDS011;49949;43.060;25.624;2022-10-31T04:35:15;9.27;;;4.75;;
63801;SDS011;49949;43.060;25.624;2022-10-31T04:37:41;9.65;;;5.10;;
63801;SDS011;49949;43.060;25.624;2022-10-31T04:40:07;17.75;;;5.13;;
63801;SDS011;49949;43.060;25.624;2022-10-31T04:42:33;14.15;;;4.72;;
63801;SDS011;49949;43.060;25.624;2022-10-31T04:45:00;10.95;;;5.13;;
63801;SDS011;49949;43.060;25.624;2022-10-31T04:47:25;13.70;;;5.97;;
63801;SDS011;49949;43.060;25.624;2022-10-31T04:49:51;16.13;;;5.97;;
63801;SDS011;49949;43.060;25.624;2022-10-31T04:52:17;16.30;;;6.55;;
63801;SDS011;49949;43.060;25.624;2022-10-31T04:54:42;13.43;;;5.25;;
63801;SDS011;49949;43.060;25.624;2022-10-31T04:57:08;16.88;;;5.32;;
63801;SDS011;49949;43.060;25.624;2022-10-31T04:59:33;18.95;;;6.47;;
63801;SDS011;49949;43.060;25.624;2022-10-31T05:01:59;9.80;;;4.90;;
63801;SDS011;49949;43.060;25.624;2022-10-31T05:04:25;11.85;;;5.07;;
63801;SDS011;49949;43.060;25.624;2022-10-31T05:06:50;12.38;;;5.55;;
63801;SDS011;49949;43.060;25.624;2022-10-31T05:09:16;16.60;;;5.93;;
63801;SDS011;49949;43.060;25.624;2022-10-31T05:11:42;11.73;;;7.00;;
63801;SDS011;49949;43.060;25.624;2022-10-31T05:14:07;48.70;;;9.00;;
63801;SDS011;49949;43.060;25.624;2022-10-31T05:16:33;23.10;;;6.88;;
63801;SDS011;49949;43.060;25.624;2022-10-31T05:18:59;18.02;;;6.13;;
63801;SDS011;49949;43.060;25.624;2022-10-31T05:21:24;16.80;;;6.15;;
63801;SDS011;49949;43.060;25.624;2022-10-31T05:23:50;16.05;;;5.25;;
63801;SDS011;49949;43.060;25.624;2022-10-31T05:26:17;20.85;;;5.50;;
63801;SDS011;49949;43.060;25.624;2022-10-31T05:28:42;18.95;;;5.75;;
63801;SDS011;49949;43.060;25.624;2022-10-31T05:31:08;16.05;;;6.25;;
63801;SDS011;49949;43.060;25.624;2022-10-31T05:33:34;14.23;;;5.40;;
63801;SDS011;49949;43.060;25.624;2022-10-31T05:35:59;18.95;;;5.57;;
63801;SDS011;49949;43.060;25.624;2022-10-31T05:38:25;25.38;;;6.18;;
63801;SDS011;49949;43.060;25.624;2022-10-31T05:40:53;31.08;;;6.57;;
63801;SDS011;49949;43.060;25.624;2022-10-31T05:43:22;15.30;;;5.82;;
63801;SDS011;49949;43.060;25.624;2022-10-31T05:45:51;17.70;;;5.82;;
63801;SDS011;49949;43.060;25.624;2022-10-31T05:48:18;13.85;;;6.55;;
63801;SDS011;49949;43.060;25.624;2022-10-31T05:50:44;34.90;;;8.38;;
63801;SDS011;49949;43.060;25.624;2022-10-31T05:53:09;21.55;;;7.95;;
63801;SDS011;49949;43.060;25.624;2022-10-31T05:55:35;25.15;;;7.43;;
63801;SDS011;49949;43.060;25.624;2022-10-31T05:58:01;26.05;;;8.85;;
63801;SDS011;49949;43.060;25.624;2022-10-31T06:00:27;27.23;;;8.27;;
63801;SDS011;49949;43.060;25.624;2022-10-31T06:03:00;21.90;;;8.63;;
63801;SDS011;49949;43.060;25.624;2022-10-31T06:05:27;30.13;;;8.77;;
63801;SDS011;49949;43.060;25.624;2022-10-31T06:07:54;28.05;;;9.07;;
63801;SDS011;49949;43.060;25.624;2022-10-31T06:10:20;43.58;;;11.65;;
63801;SDS011;49949;43.060;25.624;2022-10-31T06:12:46;30.25;;;11.18;;
63801;SDS011;49949;43.060;25.624;2022-10-31T06:15:12;26.30;;;10.75;;
63801;SDS011;49949;43.060;25.624;2022-10-31T06:17:38;26.60;;;10.68;;
63801;SDS011;49949;43.060;25.624;2022-10-31T06:20:05;27.85;;;12.07;;
63801;SDS011;49949;43.060;25.624;2022-10-31T06:22:31;40.20;;;13.02;;
63801;SDS011;49949;43.060;25.624;2022-10-31T06:24:57;32.47;;;13.52;;
63801;SDS011;49949;43.060;25.624;2022-10-31T06:27:23;52.45;;;15.73;;
63801;SDS011;49949;43.060;25.624;2022-10-31T06:29:49;43.03;;;14.95;;
63801;SDS011;49949;43.060;25.624;2022-10-31T06:32:15;58.20;;;21.00;;
63801;SDS011;49949;43.060;25.624;2022-10-31T06:34:41;176.15;;;28.38;;
63801;SDS011;49949;43.060;25.624;2022-10-31T06:37:08;74.38;;;24.00;;
63801;SDS011;49949;43.060;25.624;2022-10-31T06:39:34;86.15;;;21.33;;
63801;SDS011;49949;43.060;25.624;2022-10-31T06:42:00;71.68;;;18.90;;
63801;SDS011;49949;43.060;25.624;2022-10-31T06:44:26;69.18;;;19.67;;
63801;SDS011;49949;43.060;25.624;2022-10-31T06:46:52;55.28;;;18.05;;
63801;SDS011;49949;43.060;25.624;2022-10-31T06:49:17;50.08;;;17.67;;
63801;SDS011;49949;43.060;25.624;2022-10-31T06:51:43;52.47;;;19.63;;
63801;SDS011;49949;43.060;25.624;2022-10-31T06:54:12;60.97;;;18.25;;
63801;SDS011;49949;43.060;25.624;2022-10-31T06:56:38;67.82;;;25.08;;
63801;SDS011;49949;43.060;25.624;2022-10-31T06:59:04;69.35;;;26.20;;
63801;SDS011;49949;43.060;25.624;2022-10-31T07:01:30;68.25;;;25.75;;
63801;SDS011;49949;43.060;25.624;2022-10-31T07:03:55;55.67;;;25.65;;
63801;SDS011;49949;43.060;25.624;2022-10-31T07:06:21;70.63;;;25.60;;
63801;SDS011;49949;43.060;25.624;2022-10-31T07:08:46;61.45;;;24.42;;
63801;SDS011;49949;43.060;25.624;2022-10-31T07:11:12;117.40;;;48.35;;
63801;SDS011;49949;43.060;25.624;2022-10-31T07:13:38;65.35;;;30.00;;
63801;SDS011;49949;43.060;25.624;2022-10-31T07:16:04;57.40;;;22.08;;
63801;SDS011;49949;43.060;25.624;2022-10-31T07:18:37;60.65;;;17.75;;
63801;SDS011;49949;43.060;25.624;2022-10-31T07:21:03;47.72;;;17.20;;
63801;SDS011;49949;43.060;25.624;2022-10-31T07:23:29;223.75;;;31.73;;
63801;SDS011;49949;43.060;25.624;2022-10-31T07:25:55;53.55;;;17.70;;
63801;SDS011;49949;43.060;25.624;2022-10-31T07:28:21;25.00;;;10.38;;
63801;SDS011;49949;43.060;25.624;2022-10-31T07:30:51;18.67;;;9.77;;
63801;SDS011;49949;43.060;25.624;2022-10-31T07:33:22;41.47;;;11.13;;
63801;SDS011;49949;43.060;25.624;2022-10-31T07:35:48;18.02;;;8.95;;
63801;SDS011;49949;43.060;25.624;2022-10-31T07:38:14;21.08;;;9.15;;
63801;SDS011;49949;43.060;25.624;2022-10-31T07:40:41;18.30;;;9.35;;
63801;SDS011;49949;43.060;25.624;2022-10-31T07:43:08;16.08;;;8.52;;
63801;SDS011;49949;43.060;25.624;2022-10-31T07:45:35;30.80;;;8.55;;
63801;SDS011;49949;43.060;25.624;2022-10-31T07:48:01;13.73;;;6.88;;
63801;SDS011;49949;43.060;25.624;2022-10-31T07:50:30;17.55;;;6.28;;
63801;SDS011;49949;43.060;25.624;2022-10-31T07:53:05;8.27;;;5.00;;
63801;SDS011;49949;43.060;25.624;2022-10-31T07:55:33;48.58;;;7.55;;
63801;SDS011;49949;43.060;25.624;2022-10-31T08:00:30;50.45;;;7.25;;
63801;SDS011;49949;43.060;25.624;2022-10-31T08:03:00;9.23;;;5.75;;
63801;SDS011;49949;43.060;25.624;2022-10-31T08:05:27;22.23;;;6.53;;
63801;SDS011;49949;43.060;25.624;2022-10-31T08:07:54;14.98;;;7.00;;
63801;SDS011;49949;43.060;25.624;2022-10-31T08:10:20;16.13;;;6.10;;
63801;SDS011;49949;43.060;25.624;2022-10-31T08:12:47;94.88;;;10.68;;
63801;SDS011;49949;43.060;25.624;2022-10-31T08:15:19;97.93;;;12.77;;
63801;SDS011;49949;43.060;25.624;2022-10-31T08:17:45;38.80;;;9.07;;
63801;SDS011;49949;43.060;25.624;2022-10-31T08:20:10;19.55;;;8.13;;
63801;SDS011;49949;43.060;25.624;2022-10-31T08:22:36;16.33;;;6.97;;
63801;SDS011;49949;43.060;25.624;2022-10-31T08:25:02;89.38;;;11.05;;
63801;SDS011;49949;43.060;25.624;2022-10-31T08:27:27;16.10;;;7.32;;
63801;SDS011;49949;43.060;25.624;2022-10-31T08:29:53;15.65;;;5.53;;
63801;SDS011;49949;43.060;25.624;2022-10-31T08:32:19;12.75;;;5.63;;
63801;SDS011;49949;43.060;25.624;2022-10-31T08:34:44;9.75;;;5.63;;
63801;SDS011;49949;43.060;25.624;2022-10-31T08:37:10;26.13;;;5.38;;
63801;SDS011;49949;43.060;25.624;2022-10-31T08:39:36;13.27;;;6.90;;
63801;SDS011;49949;43.060;25.624;2022-10-31T08:42:01;40.05;;;6.15;;
63801;SDS011;49949;43.060;25.624;2022-10-31T08:44:27;7.15;;;3.88;;
63801;SDS011;49949;43.060;25.624;2022-10-31T08:46:53;5.15;;;3.42;;
63801;SDS011;49949;43.060;25.624;2022-10-31T08:49:18;17.85;;;4.40;;
63801;SDS011;49949;43.060;25.624;2022-10-31T08:51:47;11.48;;;3.55;;
63801;SDS011;49949;43.060;25.624;2022-10-31T08:54:13;11.70;;;3.72;;
63801;SDS011;49949;43.060;25.624;2022-10-31T08:56:39;21.42;;;3.83;;
63801;SDS011;49949;43.060;25.624;2022-10-31T08:59:04;7.38;;;3.42;;
63801;SDS011;49949;43.060;25.624;2022-10-31T09:01:30;8.30;;;3.65;;
63801;SDS011;49949;43.060;25.624;2022-10-31T09:03:56;5.43;;;3.15;;
63801;SDS011;49949;43.060;25.624;2022-10-31T09:06:21;8.30;;;3.60;;
63801;SDS011;49949;43.060;25.624;2022-10-31T09:08:47;4.90;;;3.00;;
63801;SDS011;49949;43.060;25.624;2022-10-31T09:11:12;6.57;;;2.80;;
63801;SDS011;49949;43.060;25.624;2022-10-31T09:13:38;10.43;;;3.72;;
63801;SDS011;49949;43.060;25.624;2022-10-31T09:16:04;3.30;;;2.30;;
63801;SDS011;49949;43.060;25.624;2022-10-31T09:18:30;13.38;;;2.75;;
63801;SDS011;49949;43.060;25.624;2022-10-31T09:20:57;4.60;;;2.30;;
63801;SDS011;49949;43.060;25.624;2022-10-31T09:23:24;5.70;;;3.00;;
63801;SDS011;49949;43.060;25.624;2022-10-31T09:25:50;7.68;;;2.88;;
63801;SDS011;49949;43.060;25.624;2022-10-31T09:28:18;6.28;;;2.53;;
63801;SDS011;49949;43.060;25.624;2022-10-31T09:30:46;8.07;;;3.10;;
63801;SDS011;49949;43.060;25.624;2022-10-31T09:33:13;12.50;;;3.38;;
63801;SDS011;49949;43.060;25.624;2022-10-31T09:35:39;8.02;;;2.58;;
63801;SDS011;49949;43.060;25.624;2022-10-31T09:40:34;7.40;;;3.15;;
63801;SDS011;49949;43.060;25.624;2022-10-31T09:51:28;4.97;;;2.55;;
63801;SDS011;49949;43.060;25.624;2022-10-31T09:56:49;6.00;;;2.60;;
63801;SDS011;49949;43.060;25.624;2022-10-31T09:59:37;6.53;;;2.92;;
63801;SDS011;49949;43.060;25.624;2022-10-31T10:09:55;12.77;;;2.70;;
63801;SDS011;49949;43.060;25.624;2022-10-31T10:18:38;7.35;;;3.00;;
63801;SDS011;49949;43.060;25.624;2022-10-31T10:21:32;29.70;;;4.28;;
63801;SDS011;49949;43.060;25.624;2022-10-31T10:29:49;4.63;;;2.95;;
63801;SDS011;49949;43.060;25.624;2022-10-31T10:32:30;5.18;;;3.05;;
63801;SDS011;49949;43.060;25.624;2022-10-31T10:35:14;11.48;;;4.35;;
63801;SDS011;49949;43.060;25.624;2022-10-31T10:41:16;8.55;;;3.00;;
63801;SDS011;49949;43.060;25.624;2022-10-31T10:43:44;5.57;;;2.53;;
63801;SDS011;49949;43.060;25.624;2022-10-31T10:49:04;13.80;;;4.68;;
63801;SDS011;49949;43.060;25.624;2022-10-31T10:59:30;24.95;;;4.10;;
63801;SDS011;49949;43.060;25.624;2022-10-31T11:01:56;5.55;;;2.88;;
63801;SDS011;49949;43.060;25.624;2022-10-31T11:04:32;5.38;;;2.45;;
63801;SDS011;49949;43.060;25.624;2022-10-31T11:07:00;5.38;;;3.55;;
63801;SDS011;49949;43.060;25.624;2022-10-31T11:09:28;4.35;;;2.75;;
63801;SDS011;49949;43.060;25.624;2022-10-31T11:11:54;10.20;;;3.25;;
63801;SDS011;49949;43.060;25.624;2022-10-31T11:14:21;6.55;;;2.17;;
63801;SDS011;49949;43.060;25.624;2022-10-31T11:16:49;9.20;;;2.55;;
63801;SDS011;49949;43.060;25.624;2022-10-31T11:19:44;6.70;;;2.80;;
63801;SDS011;49949;43.060;25.624;2022-10-31T11:22:16;4.10;;;2.67;;
63801;SDS011;49949;43.060;25.624;2022-10-31T11:24:43;17.88;;;2.17;;
63801;SDS011;49949;43.060;25.624;2022-10-31T11:27:16;5.90;;;3.03;;
63801;SDS011;49949;43.060;25.624;2022-10-31T11:29:46;4.47;;;2.63;;
63801;SDS011;49949;43.060;25.624;2022-10-31T11:32:16;6.13;;;2.67;;
63801;SDS011;49949;43.060;25.624;2022-10-31T11:34:45;6.05;;;2.38;;
63801;SDS011;49949;43.060;25.624;2022-10-31T11:37:21;5.38;;;2.60;;
63801;SDS011;49949;43.060;25.624;2022-10-31T11:39:52;4.80;;;2.60;;
63801;SDS011;49949;43.060;25.624;2022-10-31T11:42:25;8.13;;;2.90;;
63801;SDS011;49949;43.060;25.624;2022-10-31T11:44:54;5.50;;;2.88;;
63801;SDS011;49949;43.060;25.624;2022-10-31T11:47:25;5.95;;;2.30;;
63801;SDS011;49949;43.060;25.624;2022-10-31T11:49:57;3.33;;;2.40;;
63801;SDS011;49949;43.060;25.624;2022-10-31T11:52:34;5.05;;;3.10;;
63801;SDS011;49949;43.060;25.624;2022-10-31T11:57:48;23.60;;;3.70;;
63801;SDS011;49949;43.060;25.624;2022-10-31T12:08:44;13.13;;;3.30;;
63801;SDS011;49949;43.060;25.624;2022-10-31T12:17:22;3.75;;;2.70;;
63801;SDS011;49949;43.060;25.624;2022-10-31T12:23:00;4.80;;;2.78;;
63801;SDS011;49949;43.060;25.624;2022-10-31T12:31:32;26.23;;;4.30;;
63801;SDS011;49949;43.060;25.624;2022-10-31T12:58:51;5.72;;;2.45;;
63801;SDS011;49949;43.060;25.624;2022-10-31T13:06:32;4.35;;;2.55;;
63801;SDS011;49949;43.060;25.624;2022-10-31T13:09:12;123.60;;;9.23;;
63801;SDS011;49949;43.060;25.624;2022-10-31T13:12:15;96.03;;;7.38;;
63801;SDS011;49949;43.060;25.624;2022-10-31T13:14:37;11.52;;;3.45;;
63801;SDS011;49949;43.060;25.624;2022-10-31T13:17:06;12.93;;;3.33;;
63801;SDS011;49949;43.060;25.624;2022-10-31T13:19:43;7.00;;;3.33;;
63801;SDS011;49949;43.060;25.624;2022-10-31T13:22:21;4.30;;;2.42;;
63801;SDS011;49949;43.060;25.624;2022-10-31T13:30:19;4.45;;;2.53;;
63801;SDS011;49949;43.060;25.624;2022-10-31T13:41:02;8.63;;;2.97;;
63801;SDS011;49949;43.060;25.624;2022-10-31T13:44:21;6.03;;;3.00;;
63801;SDS011;49949;43.060;25.624;2022-10-31T13:46:45;10.50;;;3.55;;
63801;SDS011;49949;43.060;25.624;2022-10-31T13:51:51;7.82;;;3.30;;
63801;SDS011;49949;43.060;25.624;2022-10-31T13:54:22;5.40;;;2.97;;
63801;SDS011;49949;43.060;25.624;2022-10-31T13:56:56;18.88;;;3.92;;
63801;SDS011;49949;43.060;25.624;2022-10-31T13:59:22;31.92;;;3.97;;
63801;SDS011;49949;43.060;25.624;2022-10-31T14:01:57;10.40;;;3.58;;
63801;SDS011;49949;43.060;25.624;2022-10-31T14:04:38;8.35;;;2.80;;
63801;SDS011;49949;43.060;25.624;2022-10-31T14:07:14;10.98;;;3.58;;
63801;SDS011;49949;43.060;25.624;2022-10-31T14:12:37;8.48;;;2.90;;
63801;SDS011;49949;43.060;25.624;2022-10-31T14:17:52;5.50;;;2.80;;
63801;SDS011;49949;43.060;25.624;2022-10-31T14:28:45;7.57;;;2.95;;
63801;SDS011;49949;43.060;25.624;2022-10-31T14:34:18;20.25;;;3.90;;
63801;SDS011;49949;43.060;25.624;2022-10-31T14:46:10;9.82;;;3.30;;
63801;SDS011;49949;43.060;25.624;2022-10-31T14:52:12;21.27;;;3.72;;
63801;SDS011;49949;43.060;25.624;2022-10-31T14:54:42;12.70;;;3.40;;
63801;SDS011;49949;43.060;25.624;2022-10-31T14:57:16;23.52;;;3.90;;
63801;SDS011;49949;43.060;25.624;2022-10-31T14:59:50;28.92;;;8.13;;
63801;SDS011;49949;43.060;25.624;2022-10-31T15:02:38;21.65;;;4.60;;
63801;SDS011;49949;43.060;25.624;2022-10-31T15:05:09;44.95;;;6.80;;
63801;SDS011;49949;43.060;25.624;2022-10-31T15:07:36;46.17;;;4.95;;
63801;SDS011;49949;43.060;25.624;2022-10-31T15:10:20;44.28;;;5.30;;
63801;SDS011;49949;43.060;25.624;2022-10-31T15:12:51;77.63;;;7.20;;
63801;SDS011;49949;43.060;25.624;2022-10-31T15:15:23;49.50;;;5.50;;
63801;SDS011;49949;43.060;25.624;2022-10-31T15:17:55;20.02;;;4.82;;
63801;SDS011;49949;43.060;25.624;2022-10-31T15:20:23;16.42;;;4.18;;
63801;SDS011;49949;43.060;25.624;2022-10-31T15:22:54;9.75;;;4.35;;
63801;SDS011;49949;43.060;25.624;2022-10-31T15:25:22;21.00;;;4.35;;
63801;SDS011;49949;43.060;25.624;2022-10-31T15:27:51;16.17;;;4.63;;
63801;SDS011;49949;43.060;25.624;2022-10-31T15:30:21;14.15;;;4.35;;
63801;SDS011;49949;43.060;25.624;2022-10-31T15:32:49;26.50;;;6.22;;
63801;SDS011;49949;43.060;25.624;2022-10-31T15:35:25;21.88;;;4.82;;
63801;SDS011;49949;43.060;25.624;2022-10-31T15:37:56;28.30;;;5.22;;
63801;SDS011;49949;43.060;25.624;2022-10-31T15:40:24;18.00;;;5.00;;
63801;SDS011;49949;43.060;25.624;2022-10-31T15:42:53;24.98;;;5.07;;
63801;SDS011;49949;43.060;25.624;2022-10-31T15:45:24;22.63;;;4.97;;
63801;SDS011;49949;43.060;25.624;2022-10-31T15:48:01;25.60;;;4.95;;
63801;SDS011;49949;43.060;25.624;2022-10-31T15:50:46;22.05;;;5.30;;
63801;SDS011;49949;43.060;25.624;2022-10-31T15:53:24;15.15;;;5.38;;
63801;SDS011;49949;43.060;25.624;2022-10-31T15:55:53;14.43;;;4.68;;
63801;SDS011;49949;43.060;25.624;2022-10-31T15:58:21;22.48;;;5.35;;
63801;SDS011;49949;43.060;25.624;2022-10-31T16:00:58;17.65;;;5.28;;
63801;SDS011;49949;43.060;25.624;2022-10-31T16:03:29;11.50;;;5.40;;
63801;SDS011;49949;43.060;25.624;2022-10-31T16:05:58;22.95;;;5.63;;
63801;SDS011;49949;43.060;25.624;2022-10-31T16:10:51;19.08;;;5.47;;
63801;SDS011;49949;43.060;25.624;2022-10-31T16:13:17;17.73;;;5.50;;
63801;SDS011;49949;43.060;25.624;2022-10-31T16:15:48;20.48;;;5.80;;
63801;SDS011;49949;43.060;25.624;2022-10-31T16:18:16;23.90;;;5.70;;
63801;SDS011;49949;43.060;25.624;2022-10-31T16:20:47;19.55;;;5.25;;
63801;SDS011;49949;43.060;25.624;2022-10-31T16:23:16;21.38;;;5.40;;
63801;SDS011;49949;43.060;25.624;2022-10-31T16:25:42;14.73;;;5.63;;
63801;SDS011;49949;43.060;25.624;2022-10-31T16:28:16;8.70;;;4.50;;
63801;SDS011;49949;43.060;25.624;2022-10-31T16:30:50;11.88;;;4.20;;
63801;SDS011;49949;43.060;25.624;2022-10-31T16:33:22;18.65;;;4.45;;
63801;SDS011;49949;43.060;25.624;2022-10-31T16:35:52;13.02;;;4.45;;
63801;SDS011;49949;43.060;25.624;2022-10-31T16:38:18;20.90;;;4.93;;
63801;SDS011;49949;43.060;25.624;2022-10-31T16:40:44;20.83;;;4.53;;
63801;SDS011;49949;43.060;25.624;2022-10-31T16:43:14;9.38;;;4.43;;
63801;SDS011;49949;43.060;25.624;2022-10-31T16:45:45;13.60;;;5.30;;
63801;SDS011;49949;43.060;25.624;2022-10-31T16:48:12;10.18;;;5.35;;
63801;SDS011;49949;43.060;25.624;2022-10-31T16:50:43;12.00;;;4.55;;
63801;SDS011;49949;43.060;25.624;2022-10-31T16:53:11;9.20;;;4.88;;
63801;SDS011;49949;43.060;25.624;2022-10-31T16:55:44;11.73;;;5.07;;
63801;SDS011;49949;43.060;25.624;2022-10-31T16:58:18;9.45;;;4.47;;
63801;SDS011;49949;43.060;25.624;2022-10-31T17:00:50;11.60;;;4.80;;
63801;SDS011;49949;43.060;25.624;2022-10-31T17:03:16;11.07;;;4.10;;
63801;SDS011;49949;43.060;25.624;2022-10-31T17:05:42;13.48;;;5.43;;
63801;SDS011;49949;43.060;25.624;2022-10-31T17:08:08;15.63;;;5.63;;
63801;SDS011;49949;43.060;25.624;2022-10-31T17:10:34;10.35;;;4.85;;
63801;SDS011;49949;43.060;25.624;2022-10-31T17:13:01;14.93;;;5.13;;
63801;SDS011;49949;43.060;25.624;2022-10-31T17:15:28;15.95;;;5.00;;
63801;SDS011;49949;43.060;25.624;2022-10-31T17:18:04;12.13;;;4.57;;
63801;SDS011;49949;43.060;25.624;2022-10-31T17:20:30;12.52;;;5.32;;
63801;SDS011;49949;43.060;25.624;2022-10-31T17:22:56;9.13;;;4.78;;
63801;SDS011;49949;43.060;25.624;2022-10-31T17:25:24;10.80;;;5.25;;
63801;SDS011;49949;43.060;25.624;2022-10-31T17:27:51;10.70;;;4.90;;
63801;SDS011;49949;43.060;25.624;2022-10-31T17:30:18;14.55;;;5.28;;
63801;SDS011;49949;43.060;25.624;2022-10-31T17:32:45;25.13;;;5.38;;